Time;durP1;ratioP1;P1;durP2;ratioP2;P2;SDS_P1;SDS_P2;PMS_P1;PMS_P2;Temp;Humidity;BMP_temperature;BMP_pressure;BME280_temperature;BME280_humidity;BME280_pressure;Samples;Min_cycle;Max_cycle;Signal;HPM_P1;HPM_P2
2021/12/18 00:01:05;;;;;;;26.63;9.93;;;8.80;99.90;;;;;;5072097;28;20359;-75
2021/12/18 00:03:32;;;;;;;27.45;10.55;;;8.80;99.90;;;;;;5071878;28;20036;-75
2021/12/18 00:05:58;;;;;;;25.05;10.60;;;8.80;99.90;;;;;;5071956;28;20029;-75
2021/12/18 00:08:24;;;;;;;28.02;10.50;;;8.80;99.90;;;;;;5071348;28;20581;-75
2021/12/18 00:10:50;;;;;;;26.92;9.73;;;8.80;99.90;;;;;;5070521;28;20357;-75
2021/12/18 00:13:16;;;;;;;25.33;9.80;;;8.80;99.90;;;;;;5071968;28;20028;-76
2021/12/18 00:15:42;;;;;;;32.85;10.68;;;8.80;99.90;;;;;;5076110;28;20024;-75
2021/12/18 00:18:07;;;;;;;38.92;11.80;;;8.80;99.90;;;;;;5071780;28;20025;-75
2021/12/18 00:20:35;;;;;;;27.30;10.32;;;8.80;99.90;;;;;;5071182;28;20025;-75
2021/12/18 00:23:01;;;;;;;28.30;10.35;;;8.90;99.90;;;;;;5071652;28;20095;-75
2021/12/18 00:25:27;;;;;;;35.35;11.55;;;8.90;99.90;;;;;;5071608;28;20032;-76
2021/12/18 00:27:53;;;;;;;27.27;10.70;;;8.90;99.90;;;;;;5071725;28;20056;-76
2021/12/18 00:30:19;;;;;;;41.35;11.93;;;8.80;99.90;;;;;;5071777;28;20028;-76
2021/12/18 00:32:44;;;;;;;24.02;9.52;;;8.90;99.90;;;;;;5071670;28;20462;-75
2021/12/18 00:35:11;;;;;;;33.95;11.07;;;8.80;99.90;;;;;;5071720;28;20033;-75
2021/12/18 00:37:36;;;;;;;47.38;12.30;;;8.80;99.90;;;;;;5090022;28;20035;-75
2021/12/18 00:40:08;;;;;;;36.75;12.43;;;8.80;99.90;;;;;;5091711;28;20028;-76
2021/12/18 00:42:45;;;;;;;38.13;12.35;;;8.80;99.90;;;;;;5091124;28;20071;-75
2021/12/18 00:45:16;;;;;;;45.53;11.93;;;8.80;99.90;;;;;;5091637;28;20020;-75
2021/12/18 00:47:44;;;;;;;46.85;12.18;;;8.80;99.90;;;;;;5091450;28;20020;-75
2021/12/18 00:50:20;;;;;;;30.67;11.55;;;8.80;99.90;;;;;;5091351;28;20024;-75
2021/12/18 00:52:47;;;;;;;26.02;10.43;;;8.80;99.90;;;;;;5091442;28;20038;-76
2021/12/18 00:55:14;;;;;;;44.90;12.85;;;8.80;99.90;;;;;;5091582;28;20081;-75
2021/12/18 00:57:40;;;;;;;33.67;12.20;;;8.80;99.90;;;;;;5091710;28;20462;-76
2021/12/18 01:00:09;;;;;;;34.30;11.63;;;8.80;99.90;;;;;;5090540;28;20028;-75
2021/12/18 01:02:36;;;;;;;28.70;11.63;;;8.80;99.90;;;;;;5091731;28;20085;-76
2021/12/18 01:05:06;;;;;;;28.92;11.05;;;8.80;99.90;;;;;;5091598;28;20023;-76
2021/12/18 01:07:31;;;;;;;26.52;11.00;;;8.80;99.90;;;;;;5091532;28;20116;-75
2021/12/18 01:12:28;;;;;;;30.60;11.55;;;8.80;99.90;;;;;;5091736;28;20024;-76
2021/12/18 01:15:14;;;;;;;32.60;11.65;;;8.80;99.90;;;;;;5091580;28;20508;-75
2021/12/18 01:23:09;;;;;;;30.85;11.77;;;8.80;99.90;;;;;;5074693;28;20047;-75
2021/12/18 01:25:34;;;;;;;30.38;10.63;;;8.80;99.90;;;;;;5073263;28;20025;-75
2021/12/18 01:28:00;;;;;;;25.63;9.80;;;8.80;99.90;;;;;;5074559;28;20470;-76
2021/12/18 01:30:26;;;;;;;29.13;10.90;;;8.80;99.90;;;;;;5074751;28;20081;-76
2021/12/18 01:32:54;;;;;;;27.83;9.93;;;8.80;99.90;;;;;;5073484;28;20028;-76
2021/12/18 01:35:20;;;;;;;23.80;8.75;;;8.80;99.90;;;;;;5074704;28;20130;-75
2021/12/18 01:37:47;;;;;;;20.92;8.45;;;8.70;99.90;;;;;;5094261;28;20035;-75
2021/12/18 01:40:14;;;;;;;17.85;7.53;;;8.70;99.90;;;;;;5093353;28;20466;-75
2021/12/18 01:45:35;;;;;;;18.77;7.43;;;8.70;99.90;;;;;;5094992;28;20097;-76
2021/12/18 01:53:29;;;;;;;20.27;7.93;;;8.70;99.90;;;;;;5074440;28;20094;-75
2021/12/18 01:55:54;;;;;;;17.02;7.50;;;8.70;99.90;;;;;;5074357;28;20017;-75
2021/12/18 01:58:23;;;;;;;20.17;7.20;;;8.70;99.90;;;;;;5074252;28;20024;-75
2021/12/18 02:00:52;;;;;;;20.15;7.70;;;8.70;99.90;;;;;;5074015;28;20016;-75
2021/12/18 02:03:17;;;;;;;20.92;7.35;;;8.70;99.90;;;;;;5074114;28;20031;-75
2021/12/18 02:05:43;;;;;;;17.60;7.90;;;8.70;99.90;;;;;;5073669;28;20021;-75
2021/12/18 02:08:09;;;;;;;22.20;8.13;;;8.70;99.90;;;;;;5073853;28;20060;-75
2021/12/18 02:10:48;;;;;;;20.35;8.15;;;8.80;99.90;;;;;;5073912;28;20753;-75
2021/12/18 02:21:22;;;;;;;24.35;9.13;;;8.70;99.90;;;;;;5073868;28;20031;-75
2021/12/18 02:23:48;;;;;;;30.42;9.40;;;8.70;99.90;;;;;;5073441;28;20027;-76
2021/12/18 02:26:14;;;;;;;22.52;8.68;;;8.70;99.90;;;;;;5073621;28;20032;-75
2021/12/18 02:28:44;;;;;;;36.20;10.65;;;8.80;99.90;;;;;;5089135;28;20029;-76
2021/12/18 02:31:09;;;;;;;25.25;9.90;;;8.70;99.90;;;;;;5073555;28;20028;-75
2021/12/18 02:33:35;;;;;;;25.55;9.18;;;8.70;99.90;;;;;;5073518;28;20031;-75
2021/12/18 02:36:04;;;;;;;25.55;9.75;;;8.70;99.90;;;;;;5073371;28;20025;-76
2021/12/18 02:39:01;;;;;;;30.52;9.95;;;8.70;99.90;;;;;;5072159;28;20127;-75
2021/12/18 02:44:02;;;;;;;29.38;9.63;;;8.70;99.90;;;;;;5073327;28;20643;-75
2021/12/18 02:46:27;;;;;;;24.42;9.98;;;8.70;99.90;;;;;;5073369;28;20020;-75
2021/12/18 02:48:54;;;;;;;31.88;10.40;;;8.70;99.90;;;;;;5071443;28;20028;-75
2021/12/18 02:51:21;;;;;;;34.53;10.52;;;8.70;99.90;;;;;;5072964;28;20028;-75
2021/12/18 02:53:55;;;;;;;21.58;9.00;;;8.70;99.90;;;;;;5072962;28;20016;-76
2021/12/18 02:56:23;;;;;;;29.35;8.82;;;8.60;99.90;;;;;;5073268;28;20179;-75
2021/12/18 02:58:51;;;;;;;35.55;10.50;;;8.60;99.90;;;;;;5073046;28;20025;-76
2021/12/18 03:01:21;;;;;;;35.42;9.85;;;8.70;99.90;;;;;;5072703;28;20107;-75
2021/12/18 03:03:48;;;;;;;28.83;9.77;;;8.60;99.90;;;;;;5072785;28;20029;-75
2021/12/18 03:06:40;;;;;;;26.25;9.52;;;8.60;99.90;;;;;;5072637;28;20024;-75
2021/12/18 03:22:59;;;;;;;26.58;8.50;;;8.60;99.90;;;;;;5072388;28;20073;-75
2021/12/18 03:25:31;;;;;;;35.00;9.82;;;8.50;99.90;;;;;;5072374;28;20029;-75
2021/12/18 03:27:59;;;;;;;24.05;8.02;;;8.50;99.90;;;;;;5070962;28;20206;-75
2021/12/18 03:30:25;;;;;;;28.17;8.38;;;8.40;99.90;;;;;;5072380;28;20107;-75
2021/12/18 03:32:51;;;;;;;27.15;8.60;;;8.40;99.90;;;;;;5072402;28;20384;-76
2021/12/18 03:35:17;;;;;;;33.63;9.45;;;8.50;99.90;;;;;;5072259;28;20021;-76
2021/12/18 03:37:44;;;;;;;24.88;8.23;;;8.50;99.90;;;;;;5091478;28;20024;-75
2021/12/18 03:40:13;;;;;;;24.67;8.20;;;8.50;99.90;;;;;;5092073;28;20507;-75
2021/12/18 03:42:39;;;;;;;31.58;8.48;;;8.50;99.90;;;;;;5092307;28;20036;-75
2021/12/18 03:45:07;;;;;;;33.92;9.52;;;8.50;99.90;;;;;;5092577;28;20031;-75
2021/12/18 03:47:33;;;;;;;28.83;8.75;;;8.50;99.90;;;;;;5090927;28;20723;-75
2021/12/18 03:49:59;;;;;;;30.17;9.18;;;8.50;99.90;;;;;;5081013;28;20063;-75
2021/12/18 03:52:25;;;;;;;32.78;8.30;;;8.40;99.90;;;;;;5072018;28;20051;-75
2021/12/18 03:54:50;;;;;;;31.20;8.68;;;8.50;99.90;;;;;;5070470;28;20482;-75
2021/12/18 03:57:16;;;;;;;33.03;8.50;;;8.40;99.90;;;;;;5072246;28;20017;-75
2021/12/18 03:59:41;;;;;;;45.40;9.35;;;8.40;99.90;;;;;;5072013;28;20028;-75
2021/12/18 04:02:07;;;;;;;39.78;8.63;;;8.40;99.90;;;;;;5071951;28;20481;-75
2021/12/18 04:04:33;;;;;;;31.10;8.10;;;8.40;99.90;;;;;;5071891;28;20317;-75
2021/12/18 04:07:00;;;;;;;44.45;8.75;;;8.40;99.90;;;;;;5072001;28;20040;-75
2021/12/18 04:09:28;;;;;;;39.13;8.18;;;8.40;99.90;;;;;;5071718;28;20058;-75
2021/12/18 04:11:54;;;;;;;32.30;8.30;;;8.30;99.90;;;;;;5071951;28;20031;-76
2021/12/18 04:14:20;;;;;;;40.53;8.98;;;8.30;99.90;;;;;;5071677;28;20029;-76
2021/12/18 04:16:46;;;;;;;29.98;7.57;;;8.30;99.90;;;;;;5071908;28;20413;-75
2021/12/18 04:19:11;;;;;;;30.65;7.70;;;8.30;99.90;;;;;;5071815;28;20382;-75
2021/12/18 04:21:37;;;;;;;23.98;7.05;;;8.20;99.90;;;;;;5090833;28;20046;-75
2021/12/18 04:24:04;;;;;;;46.25;7.30;;;8.20;99.90;;;;;;5091625;28;20047;-75
2021/12/18 04:26:31;;;;;;;29.75;6.85;;;8.20;99.90;;;;;;5092111;28;20035;-75
2021/12/18 04:28:57;;;;;;;20.90;5.82;;;8.10;99.90;;;;;;5091848;28;20024;-76
2021/12/18 04:31:24;;;;;;;30.08;6.53;;;8.20;99.90;;;;;;5092075;28;20076;-75
2021/12/18 04:33:50;;;;;;;20.13;5.65;;;8.20;99.90;;;;;;5090641;28;20402;-75
2021/12/18 04:36:15;;;;;;;15.15;4.35;;;8.10;99.90;;;;;;5091783;28;20032;-75
2021/12/18 04:38:41;;;;;;;10.45;3.45;;;8.10;99.90;;;;;;5091888;28;20081;-75
2021/12/18 04:41:09;;;;;;;13.52;4.07;;;8.00;99.90;;;;;;5091843;28;20028;-76
2021/12/18 04:43:35;;;;;;;12.75;3.95;;;8.00;99.90;;;;;;5091782;28;20312;-76
2021/12/18 04:46:00;;;;;;;13.15;3.90;;;8.00;99.90;;;;;;5091651;28;20047;-76
2021/12/18 04:48:26;;;;;;;12.63;3.80;;;8.00;99.90;;;;;;5091723;28;20032;-76
2021/12/18 04:50:52;;;;;;;13.00;3.83;;;8.00;99.90;;;;;;5092782;28;20028;-76
2021/12/18 04:53:18;;;;;;;13.02;3.72;;;8.00;99.90;;;;;;5095613;28;20056;-76
2021/12/18 04:55:43;;;;;;;10.68;3.50;;;8.00;99.90;;;;;;5095726;28;20028;-76
2021/12/18 04:58:09;;;;;;;9.73;2.60;;;8.00;99.90;;;;;;5095658;28;20024;-76
2021/12/18 05:00:39;;;;;;;13.82;3.17;;;8.00;99.90;;;;;;5095588;28;20082;-75
2021/12/18 05:03:10;;;;;;;13.27;3.72;;;8.00;99.90;;;;;;5095479;28;20412;-76
2021/12/18 05:05:36;;;;;;;13.60;3.75;;;8.00;99.90;;;;;;5095411;28;20020;-76
2021/12/18 05:08:03;;;;;;;16.48;3.17;;;7.90;99.90;;;;;;5095345;28;20111;-76
2021/12/18 05:10:29;;;;;;;11.43;3.08;;;7.90;99.90;;;;;;5095234;28;20051;-76
2021/12/18 05:12:55;;;;;;;12.52;3.58;;;7.90;99.90;;;;;;5095249;28;20017;-76
2021/12/18 05:15:20;;;;;;;11.57;3.35;;;7.90;99.90;;;;;;5095386;28;20382;-75
2021/12/18 05:17:46;;;;;;;9.73;3.45;;;7.90;99.90;;;;;;5095030;28;20035;-76
2021/12/18 05:20:12;;;;;;;15.27;3.92;;;7.90;99.90;;;;;;5088029;28;20024;-75
2021/12/18 05:22:38;;;;;;;21.52;4.47;;;7.90;99.90;;;;;;5074868;28;20029;-75
2021/12/18 05:25:05;;;;;;;15.48;3.78;;;7.90;99.90;;;;;;5074596;28;20158;-76
2021/12/18 05:27:31;;;;;;;25.88;3.92;;;7.80;99.90;;;;;;5074843;28;20099;-76
2021/12/18 05:29:57;;;;;;;10.07;3.03;;;7.80;99.90;;;;;;5074840;28;20127;-76
2021/12/18 05:32:22;;;;;;;36.60;4.18;;;7.80;99.90;;;;;;5074800;28;20174;-76
2021/12/18 05:34:48;;;;;;;39.22;5.68;;;7.70;99.90;;;;;;5074389;28;20359;-75
2021/12/18 05:37:19;;;;;;;18.77;3.72;;;7.70;99.90;;;;;;5088590;28;20027;-75
2021/12/18 05:39:47;;;;;;;19.17;3.95;;;7.70;99.90;;;;;;5094803;28;20099;-75
2021/12/18 05:42:13;;;;;;;32.42;4.40;;;7.70;99.90;;;;;;5094633;28;20093;-76
2021/12/18 05:44:39;;;;;;;26.70;3.90;;;7.70;99.90;;;;;;5094787;28;20038;-76
2021/12/18 05:47:05;;;;;;;27.50;3.38;;;7.70;99.90;;;;;;5094645;28;20024;-76
2021/12/18 05:49:31;;;;;;;37.70;4.47;;;7.70;99.90;;;;;;5094259;28;20031;-76
2021/12/18 05:51:56;;;;;;;19.50;3.65;;;7.60;99.90;;;;;;5094647;28;20119;-75
2021/12/18 05:54:22;;;;;;;27.58;3.53;;;7.70;99.90;;;;;;5094560;28;20077;-75
2021/12/18 05:56:47;;;;;;;17.20;3.40;;;7.50;99.90;;;;;;5094466;28;20024;-75
2021/12/18 05:59:13;;;;;;;57.08;4.55;;;7.50;99.90;;;;;;5094440;28;20092;-75
2021/12/18 06:01:39;;;;;;;20.15;4.13;;;7.50;99.90;;;;;;5092306;28;20028;-76
2021/12/18 06:04:04;;;;;;;26.45;4.20;;;7.50;99.90;;;;;;5093903;28;20020;-76
2021/12/18 06:06:31;;;;;;;49.47;4.45;;;7.50;99.90;;;;;;5094296;28;20028;-76
2021/12/18 06:08:56;;;;;;;55.33;4.35;;;7.50;99.90;;;;;;5094201;28;20131;-76
2021/12/18 06:11:23;;;;;;;13.05;3.63;;;7.40;99.90;;;;;;5094181;28;20109;-76
2021/12/18 06:13:51;;;;;;;27.33;3.45;;;7.40;99.90;;;;;;5094164;28;20550;-76
2021/12/18 06:16:19;;;;;;;17.58;3.85;;;7.40;99.90;;;;;;5094221;28;20070;-76
2021/12/18 06:18:47;;;;;;;21.05;3.70;;;7.30;99.90;;;;;;5094073;28;20336;-76
2021/12/18 06:21:13;;;;;;;19.50;3.35;;;7.40;99.90;;;;;;5093993;28;20024;-76
2021/12/18 06:23:40;;;;;;;24.45;3.55;;;7.40;99.90;;;;;;5093879;28;20023;-75
2021/12/18 06:26:06;;;;;;;17.98;3.75;;;7.40;99.90;;;;;;5093881;28;20466;-75
2021/12/18 06:28:31;;;;;;;23.23;3.70;;;7.30;99.90;;;;;;5093843;28;20073;-75
2021/12/18 06:30:58;;;;;;;48.72;4.60;;;7.40;99.90;;;;;;5093647;28;20081;-75
2021/12/18 06:33:23;;;;;;;12.55;3.45;;;7.30;99.90;;;;;;5093501;28;20024;-75
2021/12/18 06:35:49;;;;;;;26.92;4.65;;;7.30;99.90;;;;;;5093580;28;20335;-75
2021/12/18 06:38:15;;;;;;;12.52;3.50;;;7.30;99.90;;;;;;5093519;28;20028;-75
2021/12/18 06:40:41;;;;;;;40.67;4.88;;;7.30;99.90;;;;;;5093577;28;20024;-75
2021/12/18 06:43:07;;;;;;;13.73;3.78;;;7.30;99.90;;;;;;5093500;28;20028;-75
2021/12/18 06:45:33;;;;;;;23.85;4.60;;;7.30;99.90;;;;;;5092199;28;20389;-75
2021/12/18 06:47:59;;;;;;;28.50;5.20;;;7.30;99.90;;;;;;5093400;28;20032;-75
2021/12/18 06:50:24;;;;;;;21.58;5.35;;;7.30;99.90;;;;;;5078747;28;20438;-75
2021/12/18 06:52:50;;;;;;;14.00;4.28;;;7.30;99.90;;;;;;5071752;28;20115;-75
2021/12/18 06:55:16;;;;;;;16.85;4.97;;;7.30;99.90;;;;;;5073133;28;20017;-75
2021/12/18 06:57:42;;;;;;;98.40;41.15;;;7.30;99.90;;;;;;5073002;28;20459;-75
2021/12/18 07:00:11;;;;;;;34.55;9.75;;;7.30;99.90;;;;;;5073093;28;20025;-75
2021/12/18 07:02:37;;;;;;;25.25;4.90;;;7.30;99.90;;;;;;5072965;28;20481;-76
2021/12/18 07:05:03;;;;;;;18.52;4.82;;;7.30;99.90;;;;;;5072895;28;20039;-76
2021/12/18 07:07:29;;;;;;;36.72;6.35;;;7.30;99.90;;;;;;5073074;28;20187;-76
2021/12/18 07:09:55;;;;;;;30.00;6.95;;;7.20;99.90;;;;;;5072721;28;20127;-76
2021/12/18 07:12:21;;;;;;;25.00;5.85;;;7.30;99.90;;;;;;5072904;28;20025;-75
2021/12/18 07:14:46;;;;;;;27.80;5.75;;;7.30;99.90;;;;;;5077982;28;20032;-75
2021/12/18 07:17:12;;;;;;;17.30;5.50;;;7.30;99.90;;;;;;5110848;28;20044;-75
2021/12/18 07:19:38;;;;;;;42.47;16.95;;;7.20;99.90;;;;;;5110564;27;20032;-75
2021/12/18 07:22:04;;;;;;;63.42;19.00;;;7.20;99.90;;;;;;5112195;28;20027;-75
2021/12/18 07:24:30;;;;;;;71.68;34.35;;;7.20;99.90;;;;;;5096351;28;20035;-75
2021/12/18 07:26:55;;;;;;;88.45;47.30;;;7.10;99.90;;;;;;5112747;28;20454;-75
2021/12/18 07:29:21;;;;;;;48.95;9.50;;;7.10;99.90;;;;;;5112721;28;20035;-75
2021/12/18 07:31:47;;;;;;;14.95;5.30;;;7.00;99.90;;;;;;5112717;28;20023;-75
2021/12/18 07:34:12;;;;;;;18.95;4.70;;;7.10;99.90;;;;;;5112530;28;20022;-75
2021/12/18 07:36:38;;;;;;;22.45;5.40;;;7.00;99.90;;;;;;5112557;28;20027;-75
2021/12/18 07:39:04;;;;;;;34.10;9.50;;;7.00;99.90;;;;;;5112575;28;20076;-75
2021/12/18 07:41:30;;;;;;;21.13;5.57;;;7.00;99.90;;;;;;5107081;28;20530;-75
2021/12/18 07:43:56;;;;;;;26.35;5.90;;;7.00;99.90;;;;;;5111283;28;20020;-75
2021/12/18 07:46:21;;;;;;;27.63;4.50;;;7.00;99.90;;;;;;5095074;28;20028;-75
2021/12/18 07:48:47;;;;;;;32.65;5.65;;;6.90;99.90;;;;;;5091504;28;20035;-75
2021/12/18 07:51:13;;;;;;;29.67;7.07;;;6.90;99.90;;;;;;5072132;28;20066;-75
2021/12/18 07:53:39;;;;;;;26.13;4.63;;;7.00;99.90;;;;;;5072358;28;20047;-75
2021/12/18 07:56:04;;;;;;;15.63;4.32;;;6.90;99.90;;;;;;5072024;28;20043;-75
2021/12/18 07:58:31;;;;;;;31.85;4.28;;;6.90;99.90;;;;;;5072024;28;20389;-75
2021/12/18 08:00:57;;;;;;;17.20;4.60;;;6.90;99.90;;;;;;5072201;28;20036;-75
2021/12/18 08:03:23;;;;;;;12.02;4.43;;;6.90;99.90;;;;;;5072224;28;20447;-77
2021/12/18 08:05:49;;;;;;;12.52;3.67;;;6.90;99.90;;;;;;5082379;28;20024;-77
2021/12/18 08:08:15;;;;;;;7.10;2.90;;;6.90;99.90;;;;;;5112473;28;20050;-77
2021/12/18 08:10:40;;;;;;;9.63;2.83;;;6.90;99.90;;;;;;5112601;28;20024;-77
2021/12/18 08:13:06;;;;;;;11.45;2.95;;;6.90;99.90;;;;;;5111192;28;20127;-77
2021/12/18 08:15:32;;;;;;;8.07;2.58;;;6.80;99.90;;;;;;5112827;28;20385;-77
2021/12/18 08:17:58;;;;;;;9.18;3.47;;;6.80;99.90;;;;;;5112336;28;20027;-77
2021/12/18 08:20:26;;;;;;;13.32;4.05;;;6.70;99.90;;;;;;5098906;28;20526;-77
2021/12/18 08:22:52;;;;;;;10.65;4.88;;;6.70;99.90;;;;;;5110893;28;20020;-77
2021/12/18 08:25:17;;;;;;;7.80;2.70;;;6.60;99.90;;;;;;5113101;28;20030;-77
2021/12/18 08:27:43;;;;;;;3.67;1.60;;;6.60;99.90;;;;;;5116625;28;20557;-77
2021/12/18 08:30:09;;;;;;;5.47;2.00;;;6.60;99.90;;;;;;5116854;28;20107;-77
2021/12/18 08:32:35;;;;;;;3.95;1.80;;;6.50;99.90;;;;;;5116335;27;20028;-77
2021/12/18 08:35:00;;;;;;;4.05;1.52;;;6.60;99.90;;;;;;5116316;28;20022;-77
2021/12/18 08:37:26;;;;;;;2.95;1.60;;;6.60;99.90;;;;;;5115144;28;20026;-77
2021/12/18 08:39:52;;;;;;;4.43;1.92;;;6.60;99.90;;;;;;5116439;28;20110;-77
2021/12/18 08:42:18;;;;;;;2.30;1.40;;;6.60;99.90;;;;;;5114952;28;20085;-77
2021/12/18 08:44:44;;;;;;;4.07;1.45;;;6.60;99.90;;;;;;5116356;28;20106;-77
2021/12/18 08:47:10;;;;;;;1.80;1.27;;;6.60;99.90;;;;;;5116302;28;20103;-77
2021/12/18 08:49:37;;;;;;;6.15;1.75;;;6.50;99.90;;;;;;5110911;28;20050;-77
2021/12/18 08:52:03;;;;;;;3.50;1.20;;;6.60;99.90;;;;;;5114477;28;20019;-75
2021/12/18 08:54:29;;;;;;;2.92;1.60;;;6.60;99.90;;;;;;5114815;28;20108;-76
2021/12/18 08:56:54;;;;;;;3.88;1.90;;;6.60;99.90;;;;;;5113611;28;20023;-76
2021/12/18 08:59:20;;;;;;;4.80;1.63;;;6.60;99.90;;;;;;5113661;28;20031;-76
2021/12/18 09:01:46;;;;;;;3.53;1.83;;;6.50;99.90;;;;;;5111390;28;20032;-76
2021/12/18 09:04:11;;;;;;;8.93;1.95;;;6.50;99.90;;;;;;5115015;28;20488;-76
2021/12/18 09:06:37;;;;;;;3.53;2.10;;;6.50;99.90;;;;;;5115271;28;20059;-76
2021/12/18 09:09:04;;;;;;;12.15;3.08;;;6.50;99.90;;;;;;5115025;28;20077;-76
2021/12/18 09:11:29;;;;;;;4.45;2.08;;;6.50;99.90;;;;;;5113799;28;20403;-76
2021/12/18 09:13:55;;;;;;;8.43;2.35;;;6.50;99.90;;;;;;5115014;28;20015;-76
2021/12/18 09:16:21;;;;;;;4.10;2.03;;;6.60;99.90;;;;;;5114988;28;20031;-76
2021/12/18 09:18:46;;;;;;;4.18;2.70;;;6.60;99.90;;;;;;5115047;28;20358;-76
2021/12/18 09:21:12;;;;;;;4.97;2.47;;;6.50;99.90;;;;;;5106217;28;20380;-76
2021/12/18 09:23:38;;;;;;;3.83;2.25;;;6.60;99.90;;;;;;5114900;28;20089;-76
2021/12/18 09:26:04;;;;;;;5.78;2.78;;;6.60;99.90;;;;;;5113423;28;20067;-76
2021/12/18 09:28:29;;;;;;;5.28;2.95;;;6.60;99.90;;;;;;5113354;28;20028;-76
2021/12/18 09:30:55;;;;;;;8.55;5.10;;;6.60;99.90;;;;;;5115178;28;20020;-76
2021/12/18 09:33:22;;;;;;;12.55;4.15;;;6.60;99.90;;;;;;5114982;28;20440;-78
2021/12/18 09:35:48;;;;;;;9.50;4.47;;;6.70;99.90;;;;;;5113701;28;20018;-75
2021/12/18 09:38:13;;;;;;;8.27;4.40;;;6.70;99.90;;;;;;5114622;28;20063;-75
2021/12/18 09:40:39;;;;;;;5.32;3.28;;;6.70;99.90;;;;;;5113779;28;20032;-74
2021/12/18 09:43:05;;;;;;;6.88;3.70;;;6.70;99.90;;;;;;5115252;28;20110;-75
2021/12/18 09:45:31;;;;;;;7.82;3.38;;;6.70;99.90;;;;;;5115136;28;20060;-75
2021/12/18 09:47:57;;;;;;;7.05;3.50;;;6.70;99.90;;;;;;5115851;28;20035;-75
2021/12/18 09:50:26;;;;;;;8.43;2.50;;;6.80;99.90;;;;;;5100972;28;20028;-75
2021/12/18 09:52:52;;;;;;;4.78;2.58;;;6.70;99.90;;;;;;5095084;28;20050;-76
2021/12/18 09:55:19;;;;;;;4.75;2.70;;;6.80;99.90;;;;;;5113336;28;20438;-75
2021/12/18 09:57:46;;;;;;;6.15;2.85;;;6.80;99.90;;;;;;5115114;28;20134;-75
2021/12/18 10:00:19;;;;;;;4.85;2.28;;;6.80;99.90;;;;;;5115002;27;20095;-75
2021/12/18 10:02:45;;;;;;;6.85;2.88;;;6.90;99.90;;;;;;5115197;28;20059;-75
2021/12/18 10:05:29;;;;;;;7.97;4.13;;;6.80;99.90;;;;;;5115132;28;20482;-75
2021/12/18 10:08:10;;;;;;;9.00;4.97;;;6.80;99.90;;;;;;5115222;28;20115;-75
2021/12/18 10:10:37;;;;;;;8.15;4.03;;;6.80;99.90;;;;;;5101446;28;20123;-75
2021/12/18 10:13:09;;;;;;;12.50;4.05;;;6.90;99.90;;;;;;5115084;28;20019;-75
2021/12/18 10:15:36;;;;;;;10.90;3.28;;;6.90;99.90;;;;;;5114968;28;20054;-76
2021/12/18 10:18:10;;;;;;;6.65;3.08;;;6.80;99.90;;;;;;5114080;28;20028;-75
2021/12/18 10:20:37;;;;;;;11.38;4.15;;;6.90;99.90;;;;;;5099177;28;20427;-75
2021/12/18 10:23:05;;;;;;;10.23;4.30;;;6.90;99.90;;;;;;5109310;28;20096;-75
2021/12/18 10:25:40;;;;;;;7.40;4.00;;;6.90;99.90;;;;;;5114569;28;20523;-75
2021/12/18 10:28:21;;;;;;;9.57;4.80;;;6.80;99.90;;;;;;5093370;28;20015;-75
2021/12/18 10:30:49;;;;;;;7.70;3.83;;;6.90;99.90;;;;;;5082351;28;20038;-75
2021/12/18 10:33:15;;;;;;;8.68;3.95;;;6.90;99.90;;;;;;5114491;28;20031;-75
2021/12/18 10:35:51;;;;;;;5.97;3.47;;;6.90;99.90;;;;;;5110779;27;20016;-75
2021/12/18 10:38:45;;;;;;;11.93;4.90;;;6.90;99.90;;;;;;5074822;28;20111;-75
2021/12/18 10:41:43;;;;;;;12.57;4.63;;;7.00;99.90;;;;;;5073753;28;20024;-75
2021/12/18 10:44:11;;;;;;;8.77;3.78;;;7.00;99.90;;;;;;5031037;28;20048;-72
2021/12/18 10:46:44;;;;;;;12.45;4.00;;;7.00;99.90;;;;;;5030929;28;20033;-72
2021/12/18 10:49:12;;;;;;;8.70;4.00;;;7.00;99.90;;;;;;5045066;28;20028;-72
2021/12/18 10:51:40;;;;;;;7.82;4.07;;;7.10;99.90;;;;;;5056372;28;20035;-72
2021/12/18 10:54:14;;;;;;;6.25;3.75;;;7.10;99.90;;;;;;5056409;28;20089;-74
2021/12/18 10:56:43;;;;;;;5.55;3.20;;;7.20;99.90;;;;;;5052821;28;20025;-72
2021/12/18 10:59:34;;;;;;;4.75;2.70;;;7.30;99.90;;;;;;5050397;28;20079;-72
2021/12/18 11:02:05;;;;;;;5.38;2.78;;;7.30;99.90;;;;;;5042480;28;20025;-77
2021/12/18 11:04:34;;;;;;;6.15;2.92;;;7.40;99.90;;;;;;5034848;28;20028;-76
2021/12/18 11:07:17;;;;;;;3.97;2.55;;;7.40;99.90;;;;;;5058006;28;20041;-77
2021/12/18 11:09:49;;;;;;;;;;;7.40;99.90;;;;;;5069075;28;20494;-76
2021/12/18 11:14:59;;;;;;;8.15;3.55;;;7.40;99.90;;;;;;5065045;28;20090;-77
2021/12/18 11:17:25;;;;;;;41.38;15.35;;;7.40;99.90;;;;;;5058958;28;20028;-77
2021/12/18 11:19:52;;;;;;;26.08;10.73;;;7.50;99.90;;;;;;5091303;28;20032;-76
2021/12/18 11:22:17;;;;;;;7.53;3.47;;;7.60;99.90;;;;;;5105074;28;20489;-77
2021/12/18 11:25:05;;;;;;;8.88;3.40;;;7.60;99.90;;;;;;5108264;28;20051;-77
2021/12/18 11:27:32;;;;;;;6.20;3.45;;;7.50;99.90;;;;;;5102108;28;20031;-77
2021/12/18 11:30:08;;;;;;;6.07;3.20;;;7.60;99.90;;;;;;5107277;28;20050;-75
2021/12/18 11:32:42;;;;;;;13.27;6.53;;;7.60;99.90;;;;;;5092834;28;20094;-77
2021/12/18 11:35:11;;;;;;;43.65;14.85;;;7.60;99.90;;;;;;5073566;28;20032;-77
2021/12/18 11:37:47;;;;;;;17.25;6.85;;;7.70;99.90;;;;;;5089925;28;20016;-77
2021/12/18 11:40:21;;;;;;;43.58;15.50;;;7.70;99.90;;;;;;5082132;28;20161;-77
2021/12/18 11:42:47;;;;;;;22.20;8.45;;;7.70;99.90;;;;;;5073934;28;20767;-74
2021/12/18 11:45:13;;;;;;;6.03;2.80;;;7.70;99.90;;;;;;5077670;28;20036;-75
2021/12/18 11:47:53;;;;;;;4.60;1.92;;;7.70;99.90;;;;;;5083490;28;20407;-75
2021/12/18 11:50:19;;;;;;;2.40;1.38;;;7.80;99.90;;;;;;5081193;28;20077;-74
2021/12/18 11:53:06;;;;;;;2.28;1.40;;;7.90;99.90;;;;;;5083124;28;20099;-75
2021/12/18 11:55:49;;;;;;;2.03;1.30;;;7.90;99.90;;;;;;5076510;28;20031;-76
2021/12/18 11:58:25;;;;;;;2.45;1.38;;;8.00;99.90;;;;;;5092010;28;20032;-75
2021/12/18 12:00:59;;;;;;;2.30;1.63;;;8.00;99.90;;;;;;5090404;28;20020;-75
2021/12/18 12:03:43;;;;;;;2.38;1.60;;;7.90;99.90;;;;;;5101647;28;20051;-75
2021/12/18 12:06:28;;;;;;;2.33;1.42;;;8.00;99.90;;;;;;5101614;28;20028;-76
2021/12/18 12:11:57;;;;;;;2.33;1.70;;;8.10;99.90;;;;;;5106794;28;20470;-74
2021/12/18 12:14:26;;;;;;;2.13;1.58;;;8.10;99.90;;;;;;5082600;28;20377;-74
2021/12/18 12:16:52;;;;;;;2.45;1.63;;;8.10;99.90;;;;;;5090655;28;20030;-74
2021/12/18 12:19:19;;;;;;;2.50;1.50;;;8.20;99.90;;;;;;5092594;28;20123;-74
2021/12/18 12:21:46;;;;;;;2.80;1.95;;;8.30;99.90;;;;;;5092608;28;20439;-75
2021/12/18 12:24:14;;;;;;;3.38;1.85;;;8.30;99.90;;;;;;5084031;28;20120;-75
2021/12/18 12:26:40;;;;;;;5.10;1.90;;;8.20;99.90;;;;;;5071686;28;20028;-73
2021/12/18 12:29:08;;;;;;;6.22;4.00;;;8.20;99.90;;;;;;5092128;28;20027;-77
2021/12/18 12:31:35;;;;;;;2.70;2.13;;;8.20;99.90;;;;;;5110816;28;20027;-74
2021/12/18 12:34:23;;;;;;;4.70;1.90;;;8.20;99.90;;;;;;5111815;28;20024;-74
2021/12/18 12:36:57;;;;;;;5.38;3.08;;;8.20;99.90;;;;;;5110793;28;20043;-74
2021/12/18 12:39:46;;;;;;;8.23;4.70;;;8.40;99.90;;;;;;5110376;28;20453;-74
2021/12/18 12:42:12;;;;;;;6.10;3.88;;;8.30;99.90;;;;;;5110674;28;20086;-74
2021/12/18 12:44:48;;;;;;;7.45;4.00;;;8.30;99.90;;;;;;5111881;28;20035;-74
2021/12/18 12:47:16;;;;;;;4.47;2.70;;;8.20;99.90;;;;;;5112111;28;20054;-74
2021/12/18 12:49:44;;;;;;;4.15;2.50;;;8.10;99.90;;;;;;5102115;28;20035;-74
2021/12/18 12:52:18;;;;;;;4.65;2.42;;;8.20;99.90;;;;;;5091530;28;20032;-74
2021/12/18 12:55:16;;;;;;;4.57;2.78;;;8.20;99.90;;;;;;5091484;28;20036;-74
2021/12/18 12:57:45;;;;;;;7.97;4.80;;;8.20;99.90;;;;;;5069840;28;20031;-74
2021/12/18 13:00:15;;;;;;;7.70;4.63;;;8.20;99.90;;;;;;5071206;28;20355;-74
2021/12/18 13:02:54;;;;;;;5.82;3.50;;;8.20;99.90;;;;;;5071286;28;20359;-74
2021/12/18 13:05:21;;;;;;;4.10;2.33;;;8.40;99.90;;;;;;5071128;28;20024;-74
2021/12/18 13:07:52;;;;;;;2.53;1.60;;;8.30;99.90;;;;;;5069668;28;20028;-74
2021/12/18 13:10:22;;;;;;;4.85;2.45;;;8.30;99.90;;;;;;5070874;28;20374;-74
2021/12/18 13:13:11;;;;;;;4.15;2.85;;;8.40;99.90;;;;;;5073596;28;20389;-74
2021/12/18 13:16:01;;;;;;;5.32;3.70;;;8.40;99.90;;;;;;5074808;28;20087;-74
2021/12/18 13:18:33;;;;;;;7.13;4.13;;;8.30;99.90;;;;;;5074690;28;20028;-74
2021/12/18 13:21:09;;;;;;;7.30;4.47;;;8.30;99.90;;;;;;5088128;28;20016;-74
2021/12/18 13:23:38;;;;;;;5.97;3.90;;;8.20;99.90;;;;;;5094736;28;20031;-74
2021/12/18 13:26:08;;;;;;;7.18;4.13;;;8.30;99.90;;;;;;5094733;28;20016;-74
2021/12/18 13:28:35;;;;;;;5.53;4.40;;;8.30;99.90;;;;;;5094741;28;20071;-74
2021/12/18 13:31:10;;;;;;;8.60;4.53;;;8.30;99.90;;;;;;5094775;28;20039;-74
2021/12/18 13:33:35;;;;;;;9.07;4.97;;;8.30;99.90;;;;;;5094722;28;20020;-74
2021/12/18 13:36:03;;;;;;;6.72;4.55;;;8.30;99.90;;;;;;5094308;28;20043;-74
2021/12/18 13:38:37;;;;;;;7.47;4.72;;;8.20;99.90;;;;;;5094555;28;20032;-72
2021/12/18 13:41:08;;;;;;;8.07;4.55;;;8.20;99.90;;;;;;5097021;28;20149;-74
2021/12/18 13:43:34;;;;;;;12.98;5.88;;;8.20;99.90;;;;;;5099174;28;20035;-82